sensor_id;sensor_type;location;lat;lon;timestamp;temperature;humidity
5850;DHT22;2951;47.712;9.400;2023-07-31T00:02:15;15.20;99.90
5850;DHT22;2951;47.712;9.400;2023-07-31T00:04:42;15.20;99.90
5850;DHT22;2951;47.712;9.400;2023-07-31T00:07:09;15.20;99.90
5850;DHT22;2951;47.712;9.400;2023-07-31T00:09:36;15.20;99.90
5850;DHT22;2951;47.712;9.400;2023-07-31T00:12:03;15.30;99.90
5850;DHT22;2951;47.712;9.400;2023-07-31T00:14:30;15.30;99.90
5850;DHT22;2951;47.712;9.400;2023-07-31T00:16:56;15.30;99.90
5850;DHT22;2951;47.712;9.400;2023-07-31T00:19:23;15.10;99.90
5850;DHT22;2951;47.712;9.400;2023-07-31T00:21:50;15.10;99.90
5850;DHT22;2951;47.712;9.400;2023-07-31T00:24:16;15.10;99.90
5850;DHT22;2951;47.712;9.400;2023-07-31T00:26:43;15.00;99.90
5850;DHT22;2951;47.712;9.400;2023-07-31T00:29:10;15.00;99.90
5850;DHT22;2951;47.712;9.400;2023-07-31T00:31:36;15.00;99.90
5850;DHT22;2951;47.712;9.400;2023-07-31T00:34:03;15.00;99.90
5850;DHT22;2951;47.712;9.400;2023-07-31T00:36:30;14.70;99.90
5850;DHT22;2951;47.712;9.400;2023-07-31T00:38:57;14.70;99.90
5850;DHT22;2951;47.712;9.400;2023-07-31T00:41:23;14.60;99.90
5850;DHT22;2951;47.712;9.400;2023-07-31T00:43:50;14.70;99.90
5850;DHT22;2951;47.712;9.400;2023-07-31T00:46:17;14.80;99.90
5850;DHT22;2951;47.712;9.400;2023-07-31T00:48:43;14.80;99.90
5850;DHT22;2951;47.712;9.400;2023-07-31T00:51:10;14.80;99.90
5850;DHT22;2951;47.712;9.400;2023-07-31T00:53:37;14.90;99.90
5850;DHT22;2951;47.712;9.400;2023-07-31T00:56:04;14.90;99.90
5850;DHT22;2951;47.712;9.400;2023-07-31T00:58:31;15.00;99.90
5850;DHT22;2951;47.712;9.400;2023-07-31T01:00:58;14.80;99.90
5850;DHT22;2951;47.712;9.400;2023-07-31T01:03:24;14.80;99.90
5850;DHT22;2951;47.712;9.400;2023-07-31T01:08:26;14.90;99.90
5850;DHT22;2951;47.712;9.400;2023-07-31T01:10:56;15.00;99.90
5850;DHT22;2951;47.712;9.400;2023-07-31T01:13:24;15.00;99.90
5850;DHT22;2951;47.712;9.400;2023-07-31T01:15:51;15.00;99.90
5850;DHT22;2951;47.712;9.400;2023-07-31T01:18:18;15.10;99.90
5850;DHT22;2951;47.712;9.400;2023-07-31T01:20:44;15.10;99.90
5850;DHT22;2951;47.712;9.400;2023-07-31T01:31:12;14.80;99.90
5850;DHT22;2951;47.712;9.400;2023-07-31T01:33:40;14.80;99.90
5850;DHT22;2951;47.712;9.400;2023-07-31T01:36:07;14.80;99.90
5850;DHT22;2951;47.712;9.400;2023-07-31T01:38:34;14.70;99.90
5850;DHT22;2951;47.712;9.400;2023-07-31T01:41:01;14.70;99.90
5850;DHT22;2951;47.712;9.400;2023-07-31T01:43:27;14.60;99.90
5850;DHT22;2951;47.712;9.400;2023-07-31T01:45:54;14.70;99.90
5850;DHT22;2951;47.712;9.400;2023-07-31T01:48:21;14.60;99.90
5850;DHT22;2951;47.712;9.400;2023-07-31T01:50:47;14.50;99.90
5850;DHT22;2951;47.712;9.400;2023-07-31T01:53:14;14.50;99.90
5850;DHT22;2951;47.712;9.400;2023-07-31T01:55:41;14.50;99.90
5850;DHT22;2951;47.712;9.400;2023-07-31T01:58:08;14.50;99.90
5850;DHT22;2951;47.712;9.400;2023-07-31T02:00:34;14.40;99.90
5850;DHT22;2951;47.712;9.400;2023-07-31T02:03:01;14.40;99.90
5850;DHT22;2951;47.712;9.400;2023-07-31T02:05:28;14.30;99.90
5850;DHT22;2951;47.712;9.400;2023-07-31T02:07:55;14.30;99.90
5850;DHT22;2951;47.712;9.400;2023-07-31T02:10:22;14.30;99.90
5850;DHT22;2951;47.712;9.400;2023-07-31T02:12:49;14.30;99.90
5850;DHT22;2951;47.712;9.400;2023-07-31T02:15:16;14.30;99.90
5850;DHT22;2951;47.712;9.400;2023-07-31T02:17:42;14.30;99.90
5850;DHT22;2951;47.712;9.400;2023-07-31T02:20:09;14.30;99.90
5850;DHT22;2951;47.712;9.400;2023-07-31T02:22:36;14.20;99.90
5850;DHT22;2951;47.712;9.400;2023-07-31T02:25:03;14.10;99.90
5850;DHT22;2951;47.712;9.400;2023-07-31T02:27:30;14.10;99.90
5850;DHT22;2951;47.712;9.400;2023-07-31T02:29:56;14.20;99.90
5850;DHT22;2951;47.712;9.400;2023-07-31T02:32:25;14.10;99.90
5850;DHT22;2951;47.712;9.400;2023-07-31T02:34:52;14.20;99.90
5850;DHT22;2951;47.712;9.400;2023-07-31T02:37:19;14.20;99.90
5850;DHT22;2951;47.712;9.400;2023-07-31T02:39:45;14.20;99.90
5850;DHT22;2951;47.712;9.400;2023-07-31T02:42:12;14.30;99.90
5850;DHT22;2951;47.712;9.400;2023-07-31T02:44:39;14.30;99.90
5850;DHT22;2951;47.712;9.400;2023-07-31T02:47:06;14.20;99.90
5850;DHT22;2951;47.712;9.400;2023-07-31T02:49:33;14.00;99.90
5850;DHT22;2951;47.712;9.400;2023-07-31T02:52:00;13.90;99.90
5850;DHT22;2951;47.712;9.400;2023-07-31T02:54:26;13.80;99.90
5850;DHT22;2951;47.712;9.400;2023-07-31T02:56:53;13.70;99.90
5850;DHT22;2951;47.712;9.400;2023-07-31T02:59:20;13.60;99.90
5850;DHT22;2951;47.712;9.400;2023-07-31T03:01:47;13.60;99.90
5850;DHT22;2951;47.712;9.400;2023-07-31T03:04:13;13.60;99.90
5850;DHT22;2951;47.712;9.400;2023-07-31T03:06:42;13.60;99.90
5850;DHT22;2951;47.712;9.400;2023-07-31T03:09:09;13.60;99.90
5850;DHT22;2951;47.712;9.400;2023-07-31T03:11:36;13.60;99.90
5850;DHT22;2951;47.712;9.400;2023-07-31T03:14:03;13.60;99.90
5850;DHT22;2951;47.712;9.400;2023-07-31T03:16:29;13.60;99.90
5850;DHT22;2951;47.712;9.400;2023-07-31T03:18:56;13.60;99.90
5850;DHT22;2951;47.712;9.400;2023-07-31T03:21:23;13.60;99.90
5850;DHT22;2951;47.712;9.400;2023-07-31T03:23:49;13.60;99.90
5850;DHT22;2951;47.712;9.400;2023-07-31T03:26:16;13.70;99.90
5850;DHT22;2951;47.712;9.400;2023-07-31T03:28:43;13.70;99.90
5850;DHT22;2951;47.712;9.400;2023-07-31T03:31:09;13.70;99.90
5850;DHT22;2951;47.712;9.400;2023-07-31T03:33:37;13.70;99.90
5850;DHT22;2951;47.712;9.400;2023-07-31T03:36:04;13.70;99.90
5850;DHT22;2951;47.712;9.400;2023-07-31T03:38:31;13.70;99.90
5850;DHT22;2951;47.712;9.400;2023-07-31T03:40:57;13.70;99.90
5850;DHT22;2951;47.712;9.400;2023-07-31T03:43:25;13.60;99.90
5850;DHT22;2951;47.712;9.400;2023-07-31T03:45:52;13.50;99.90
5850;DHT22;2951;47.712;9.400;2023-07-31T03:48:18;13.50;99.90
5850;DHT22;2951;47.712;9.400;2023-07-31T03:50:45;13.40;99.90
5850;DHT22;2951;47.712;9.400;2023-07-31T03:53:12;13.40;99.90
5850;DHT22;2951;47.712;9.400;2023-07-31T03:55:39;13.30;99.90
5850;DHT22;2951;47.712;9.400;2023-07-31T03:58:05;13.30;99.90
5850;DHT22;2951;47.712;9.400;2023-07-31T04:00:32;13.40;99.90
5850;DHT22;2951;47.712;9.400;2023-07-31T04:02:59;13.40;99.90
5850;DHT22;2951;47.712;9.400;2023-07-31T04:05:25;13.40;99.90
5850;DHT22;2951;47.712;9.400;2023-07-31T04:07:52;13.40;99.90
5850;DHT22;2951;47.712;9.400;2023-07-31T04:10:19;13.40;99.90
5850;DHT22;2951;47.712;9.400;2023-07-31T04:12:45;13.30;99.90
5850;DHT22;2951;47.712;9.400;2023-07-31T04:15:12;13.30;99.90
5850;DHT22;2951;47.712;9.400;2023-07-31T04:17:39;13.30;99.90
5850;DHT22;2951;47.712;9.400;2023-07-31T04:20:06;13.30;99.90
5850;DHT22;2951;47.712;9.400;2023-07-31T04:22:33;13.30;99.90
5850;DHT22;2951;47.712;9.400;2023-07-31T04:24:59;13.40;99.90
5850;DHT22;2951;47.712;9.400;2023-07-31T04:27:26;13.50;99.90
5850;DHT22;2951;47.712;9.400;2023-07-31T04:29:53;13.60;99.90
5850;DHT22;2951;47.712;9.400;2023-07-31T04:32:19;13.60;99.90
5850;DHT22;2951;47.712;9.400;2023-07-31T04:34:47;13.60;99.90
5850;DHT22;2951;47.712;9.400;2023-07-31T04:37:14;13.60;99.90
5850;DHT22;2951;47.712;9.400;2023-07-31T04:39:40;13.60;99.90
5850;DHT22;2951;47.712;9.400;2023-07-31T04:42:07;13.60;99.90
5850;DHT22;2951;47.712;9.400;2023-07-31T04:44:34;13.70;99.90
5850;DHT22;2951;47.712;9.400;2023-07-31T04:47:01;13.70;99.90
5850;DHT22;2951;47.712;9.400;2023-07-31T04:49:29;13.80;99.90
5850;DHT22;2951;47.712;9.400;2023-07-31T04:51:55;13.80;99.90
5850;DHT22;2951;47.712;9.400;2023-07-31T04:54:22;13.80;99.90
5850;DHT22;2951;47.712;9.400;2023-07-31T04:56:51;13.90;99.90
5850;DHT22;2951;47.712;9.400;2023-07-31T04:59:18;14.00;99.90
5850;DHT22;2951;47.712;9.400;2023-07-31T05:01:45;14.20;99.90
5850;DHT22;2951;47.712;9.400;2023-07-31T05:04:12;14.30;99.90
5850;DHT22;2951;47.712;9.400;2023-07-31T05:06:39;14.40;99.90
5850;DHT22;2951;47.712;9.400;2023-07-31T05:09:06;14.40;99.90
5850;DHT22;2951;47.712;9.400;2023-07-31T05:11:33;14.50;99.90
5850;DHT22;2951;47.712;9.400;2023-07-31T05:14:02;14.50;99.90
5850;DHT22;2951;47.712;9.400;2023-07-31T05:16:28;14.60;99.90
5850;DHT22;2951;47.712;9.400;2023-07-31T05:18:55;14.70;99.90
5850;DHT22;2951;47.712;9.400;2023-07-31T05:21:22;14.90;99.90
5850;DHT22;2951;47.712;9.400;2023-07-31T05:23:48;15.10;99.90
5850;DHT22;2951;47.712;9.400;2023-07-31T05:26:15;15.20;99.90
5850;DHT22;2951;47.712;9.400;2023-07-31T05:28:43;15.30;99.90
5850;DHT22;2951;47.712;9.400;2023-07-31T05:31:10;15.30;99.90
5850;DHT22;2951;47.712;9.400;2023-07-31T05:33:37;15.30;99.90
5850;DHT22;2951;47.712;9.400;2023-07-31T05:36:03;15.40;99.90
5850;DHT22;2951;47.712;9.400;2023-07-31T05:38:30;15.50;99.90
5850;DHT22;2951;47.712;9.400;2023-07-31T05:40:57;15.70;99.90
5850;DHT22;2951;47.712;9.400;2023-07-31T05:43:23;15.90;99.90
5850;DHT22;2951;47.712;9.400;2023-07-31T05:45:50;15.90;99.90
5850;DHT22;2951;47.712;9.400;2023-07-31T05:48:17;16.00;99.90
5850;DHT22;2951;47.712;9.400;2023-07-31T05:50:44;16.20;99.90
5850;DHT22;2951;47.712;9.400;2023-07-31T05:53:11;16.30;99.90
5850;DHT22;2951;47.712;9.400;2023-07-31T05:55:37;16.20;99.90
5850;DHT22;2951;47.712;9.400;2023-07-31T05:58:04;16.30;99.90
5850;DHT22;2951;47.712;9.400;2023-07-31T06:00:31;16.40;99.90
5850;DHT22;2951;47.712;9.400;2023-07-31T06:02:58;16.20;99.90
5850;DHT22;2951;47.712;9.400;2023-07-31T06:05:25;16.20;99.90
5850;DHT22;2951;47.712;9.400;2023-07-31T06:07:52;16.30;99.90
5850;DHT22;2951;47.712;9.400;2023-07-31T06:10:20;16.50;99.90
5850;DHT22;2951;47.712;9.400;2023-07-31T06:12:46;16.40;99.90
5850;DHT22;2951;47.712;9.400;2023-07-31T06:15:13;16.50;99.90
5850;DHT22;2951;47.712;9.400;2023-07-31T06:17:40;16.40;99.90
5850;DHT22;2951;47.712;9.400;2023-07-31T06:20:07;16.40;99.90
5850;DHT22;2951;47.712;9.400;2023-07-31T06:22:34;16.40;99.90
5850;DHT22;2951;47.712;9.400;2023-07-31T06:25:01;16.50;99.90
5850;DHT22;2951;47.712;9.400;2023-07-31T06:27:28;16.50;99.90
5850;DHT22;2951;47.712;9.400;2023-07-31T06:29:54;16.60;99.90
5850;DHT22;2951;47.712;9.400;2023-07-31T06:32:21;16.90;99.90
5850;DHT22;2951;47.712;9.400;2023-07-31T06:34:48;16.90;99.90
5850;DHT22;2951;47.712;9.400;2023-07-31T06:37:15;17.10;99.90
5850;DHT22;2951;47.712;9.400;2023-07-31T06:39:41;17.20;99.90
5850;DHT22;2951;47.712;9.400;2023-07-31T06:42:08;17.30;99.90
5850;DHT22;2951;47.712;9.400;2023-07-31T06:44:35;17.30;99.90
5850;DHT22;2951;47.712;9.400;2023-07-31T06:47:01;17.40;99.90
5850;DHT22;2951;47.712;9.400;2023-07-31T06:49:28;17.40;99.90
5850;DHT22;2951;47.712;9.400;2023-07-31T06:51:55;17.50;99.90
5850;DHT22;2951;47.712;9.400;2023-07-31T06:54:21;17.60;99.90
5850;DHT22;2951;47.712;9.400;2023-07-31T06:56:48;17.80;99.90
5850;DHT22;2951;47.712;9.400;2023-07-31T06:59:15;17.90;99.90
5850;DHT22;2951;47.712;9.400;2023-07-31T07:01:41;18.00;99.90
5850;DHT22;2951;47.712;9.400;2023-07-31T07:04:08;18.00;99.90
5850;DHT22;2951;47.712;9.400;2023-07-31T07:06:35;17.90;99.90
5850;DHT22;2951;47.712;9.400;2023-07-31T07:09:02;17.90;99.90
5850;DHT22;2951;47.712;9.400;2023-07-31T07:11:29;18.00;99.90
5850;DHT22;2951;47.712;9.400;2023-07-31T07:13:56;17.90;99.90
5850;DHT22;2951;47.712;9.400;2023-07-31T07:16:23;18.10;99.90
5850;DHT22;2951;47.712;9.400;2023-07-31T07:18:50;18.20;99.90
5850;DHT22;2951;47.712;9.400;2023-07-31T07:21:29;18.20;99.90
5850;DHT22;2951;47.712;9.400;2023-07-31T07:23:56;18.20;99.90
5850;DHT22;2951;47.712;9.400;2023-07-31T07:26:22;18.30;99.90
5850;DHT22;2951;47.712;9.400;2023-07-31T07:28:49;18.50;99.90
5850;DHT22;2951;47.712;9.400;2023-07-31T07:31:16;18.70;99.90
5850;DHT22;2951;47.712;9.400;2023-07-31T07:33:43;18.70;99.90
5850;DHT22;2951;47.712;9.400;2023-07-31T07:36:10;18.70;99.90
5850;DHT22;2951;47.712;9.400;2023-07-31T07:38:36;18.70;99.90
5850;DHT22;2951;47.712;9.400;2023-07-31T07:41:04;18.70;99.90
5850;DHT22;2951;47.712;9.400;2023-07-31T07:43:31;18.60;99.90
5850;DHT22;2951;47.712;9.400;2023-07-31T07:45:58;18.70;99.90
5850;DHT22;2951;47.712;9.400;2023-07-31T07:48:24;18.80;99.90
5850;DHT22;2951;47.712;9.400;2023-07-31T07:50:52;19.00;99.90
5850;DHT22;2951;47.712;9.400;2023-07-31T07:53:18;19.20;99.90
5850;DHT22;2951;47.712;9.400;2023-07-31T07:55:45;19.20;99.90
5850;DHT22;2951;47.712;9.400;2023-07-31T07:58:12;19.00;99.90
5850;DHT22;2951;47.712;9.400;2023-07-31T08:00:39;18.70;99.90
5850;DHT22;2951;47.712;9.400;2023-07-31T08:03:05;18.70;99.90
5850;DHT22;2951;47.712;9.400;2023-07-31T08:05:32;18.70;99.90
5850;DHT22;2951;47.712;9.400;2023-07-31T08:08:00;18.70;99.90
5850;DHT22;2951;47.712;9.400;2023-07-31T08:10:27;18.90;99.90
5850;DHT22;2951;47.712;9.400;2023-07-31T08:12:54;19.00;99.90
5850;DHT22;2951;47.712;9.400;2023-07-31T08:15:21;19.10;99.90
5850;DHT22;2951;47.712;9.400;2023-07-31T08:17:48;19.00;99.90
5850;DHT22;2951;47.712;9.400;2023-07-31T08:20:14;19.00;99.90
5850;DHT22;2951;47.712;9.400;2023-07-31T08:22:41;19.00;99.90
5850;DHT22;2951;47.712;9.400;2023-07-31T08:25:08;19.00;99.90
5850;DHT22;2951;47.712;9.400;2023-07-31T08:27:34;19.00;99.90
5850;DHT22;2951;47.712;9.400;2023-07-31T08:30:01;19.00;99.90
5850;DHT22;2951;47.712;9.400;2023-07-31T08:32:28;18.80;99.90
5850;DHT22;2951;47.712;9.400;2023-07-31T08:34:55;18.80;99.90
5850;DHT22;2951;47.712;9.400;2023-07-31T08:37:22;19.00;99.90
5850;DHT22;2951;47.712;9.400;2023-07-31T08:39:49;19.00;99.90
5850;DHT22;2951;47.712;9.400;2023-07-31T08:42:15;19.30;99.90
5850;DHT22;2951;47.712;9.400;2023-07-31T08:44:42;19.30;99.90
5850;DHT22;2951;47.712;9.400;2023-07-31T08:47:09;19.30;99.90
5850;DHT22;2951;47.712;9.400;2023-07-31T08:49:37;19.10;99.90
5850;DHT22;2951;47.712;9.400;2023-07-31T08:52:05;19.00;99.90
5850;DHT22;2951;47.712;9.400;2023-07-31T08:54:32;19.20;99.90
5850;DHT22;2951;47.712;9.400;2023-07-31T08:56:59;19.50;99.90
5850;DHT22;2951;47.712;9.400;2023-07-31T08:59:30;19.80;99.90
5850;DHT22;2951;47.712;9.400;2023-07-31T09:01:57;20.00;99.90
5850;DHT22;2951;47.712;9.400;2023-07-31T09:04:25;20.10;99.90
5850;DHT22;2951;47.712;9.400;2023-07-31T09:06:55;20.10;99.90
5850;DHT22;2951;47.712;9.400;2023-07-31T09:09:23;19.80;99.90
5850;DHT22;2951;47.712;9.400;2023-07-31T09:11:50;19.90;99.90
5850;DHT22;2951;47.712;9.400;2023-07-31T09:14:17;19.90;99.90
5850;DHT22;2951;47.712;9.400;2023-07-31T09:16:56;20.00;99.90
5850;DHT22;2951;47.712;9.400;2023-07-31T09:21:53;19.90;99.90
5850;DHT22;2951;47.712;9.400;2023-07-31T09:24:27;19.80;99.90
5850;DHT22;2951;47.712;9.400;2023-07-31T09:26:54;19.90;99.90
5850;DHT22;2951;47.712;9.400;2023-07-31T09:29:25;20.10;99.90
5850;DHT22;2951;47.712;9.400;2023-07-31T09:31:53;20.40;99.90
5850;DHT22;2951;47.712;9.400;2023-07-31T09:34:27;20.40;99.90
5850;DHT22;2951;47.712;9.400;2023-07-31T09:36:57;20.40;99.90
5850;DHT22;2951;47.712;9.400;2023-07-31T09:39:24;20.50;99.90
5850;DHT22;2951;47.712;9.400;2023-07-31T09:41:54;20.60;99.90
5850;DHT22;2951;47.712;9.400;2023-07-31T09:44:21;20.50;99.90
5850;DHT22;2951;47.712;9.400;2023-07-31T09:46:49;20.70;99.90
5850;DHT22;2951;47.712;9.400;2023-07-31T09:49:16;20.80;99.90
5850;DHT22;2951;47.712;9.400;2023-07-31T09:51:43;20.60;99.90
5850;DHT22;2951;47.712;9.400;2023-07-31T09:56:41;21.10;99.90
5850;DHT22;2951;47.712;9.400;2023-07-31T09:59:08;21.10;99.90
5850;DHT22;2951;47.712;9.400;2023-07-31T10:01:37;21.00;99.90
5850;DHT22;2951;47.712;9.400;2023-07-31T10:04:04;21.40;99.90
5850;DHT22;2951;47.712;9.400;2023-07-31T10:06:32;21.30;99.90
5850;DHT22;2951;47.712;9.400;2023-07-31T10:08:59;21.10;99.90
5850;DHT22;2951;47.712;9.400;2023-07-31T10:11:26;20.90;99.90
5850;DHT22;2951;47.712;9.400;2023-07-31T10:13:54;20.80;99.90
5850;DHT22;2951;47.712;9.400;2023-07-31T10:16:21;20.90;99.90
5850;DHT22;2951;47.712;9.400;2023-07-31T10:18:49;20.90;99.90
5850;DHT22;2951;47.712;9.400;2023-07-31T10:21:16;20.90;99.90
5850;DHT22;2951;47.712;9.400;2023-07-31T10:23:43;21.00;99.90
5850;DHT22;2951;47.712;9.400;2023-07-31T10:26:10;21.00;99.90
5850;DHT22;2951;47.712;9.400;2023-07-31T10:31:23;21.10;99.90
5850;DHT22;2951;47.712;9.400;2023-07-31T10:33:50;21.30;99.90
5850;DHT22;2951;47.712;9.400;2023-07-31T10:36:18;21.00;99.90
5850;DHT22;2951;47.712;9.400;2023-07-31T10:38:45;21.30;99.90
5850;DHT22;2951;47.712;9.400;2023-07-31T10:41:13;21.60;99.90
5850;DHT22;2951;47.712;9.400;2023-07-31T10:43:39;21.50;99.90
5850;DHT22;2951;47.712;9.400;2023-07-31T10:46:07;21.60;99.90
5850;DHT22;2951;47.712;9.400;2023-07-31T10:48:35;21.50;99.90
5850;DHT22;2951;47.712;9.400;2023-07-31T10:51:06;21.60;99.90
5850;DHT22;2951;47.712;9.400;2023-07-31T10:53:33;21.70;99.90
5850;DHT22;2951;47.712;9.400;2023-07-31T10:56:03;21.80;99.90
5850;DHT22;2951;47.712;9.400;2023-07-31T10:58:31;21.70;99.90
5850;DHT22;2951;47.712;9.400;2023-07-31T11:00:59;21.80;99.90
5850;DHT22;2951;47.712;9.400;2023-07-31T11:03:27;21.90;99.90
5850;DHT22;2951;47.712;9.400;2023-07-31T11:06:06;21.90;99.90
5850;DHT22;2951;47.712;9.400;2023-07-31T11:08:33;21.70;99.90
5850;DHT22;2951;47.712;9.400;2023-07-31T11:13:41;21.70;99.90
5850;DHT22;2951;47.712;9.400;2023-07-31T11:16:08;21.60;99.90
5850;DHT22;2951;47.712;9.400;2023-07-31T11:18:35;22.00;99.90
5850;DHT22;2951;47.712;9.400;2023-07-31T11:21:03;22.20;99.90
5850;DHT22;2951;47.712;9.400;2023-07-31T11:23:30;22.30;99.90
5850;DHT22;2951;47.712;9.400;2023-07-31T11:26:00;21.80;99.90
5850;DHT22;2951;47.712;9.400;2023-07-31T11:28:30;22.10;99.90
5850;DHT22;2951;47.712;9.400;2023-07-31T11:30:58;22.20;99.90
5850;DHT22;2951;47.712;9.400;2023-07-31T11:33:24;22.40;99.90
5850;DHT22;2951;47.712;9.400;2023-07-31T11:35:51;22.40;99.90
5850;DHT22;2951;47.712;9.400;2023-07-31T11:38:24;22.20;99.90
5850;DHT22;2951;47.712;9.400;2023-07-31T11:40:52;22.00;99.90
5850;DHT22;2951;47.712;9.400;2023-07-31T11:43:20;22.40;99.90
5850;DHT22;2951;47.712;9.400;2023-07-31T11:45:48;22.40;99.90
5850;DHT22;2951;47.712;9.400;2023-07-31T11:48:18;22.60;99.90
5850;DHT22;2951;47.712;9.400;2023-07-31T11:50:45;22.50;99.90
5850;DHT22;2951;47.712;9.400;2023-07-31T11:53:13;22.80;99.90
5850;DHT22;2951;47.712;9.400;2023-07-31T11:55:40;22.70;99.90
5850;DHT22;2951;47.712;9.400;2023-07-31T11:58:06;22.70;99.90
5850;DHT22;2951;47.712;9.400;2023-07-31T12:00:33;22.90;99.90
5850;DHT22;2951;47.712;9.400;2023-07-31T12:03:00;22.80;99.90
5850;DHT22;2951;47.712;9.400;2023-07-31T12:05:27;22.90;99.90
5850;DHT22;2951;47.712;9.400;2023-07-31T12:07:54;22.80;99.90
5850;DHT22;2951;47.712;9.400;2023-07-31T12:10:25;23.20;99.90
5850;DHT22;2951;47.712;9.400;2023-07-31T12:15:29;23.40;99.90
5850;DHT22;2951;47.712;9.400;2023-07-31T12:17:55;23.50;99.90
5850;DHT22;2951;47.712;9.400;2023-07-31T12:20:22;23.30;99.90
5850;DHT22;2951;47.712;9.400;2023-07-31T12:22:49;23.20;99.90
5850;DHT22;2951;47.712;9.400;2023-07-31T12:25:16;22.90;99.90
5850;DHT22;2951;47.712;9.400;2023-07-31T12:27:45;22.90;99.90
5850;DHT22;2951;47.712;9.400;2023-07-31T12:32:58;22.80;99.90
5850;DHT22;2951;47.712;9.400;2023-07-31T12:35:34;22.80;99.90
5850;DHT22;2951;47.712;9.400;2023-07-31T12:38:01;22.90;99.90
5850;DHT22;2951;47.712;9.400;2023-07-31T12:40:28;23.00;99.90
5850;DHT22;2951;47.712;9.400;2023-07-31T12:43:01;23.20;99.90
5850;DHT22;2951;47.712;9.400;2023-07-31T12:45:30;23.60;99.90
5850;DHT22;2951;47.712;9.400;2023-07-31T12:47:58;23.60;99.90
5850;DHT22;2951;47.712;9.400;2023-07-31T12:50:25;23.70;99.90
5850;DHT22;2951;47.712;9.400;2023-07-31T12:52:55;23.50;99.90
5850;DHT22;2951;47.712;9.400;2023-07-31T12:55:22;23.60;99.90
5850;DHT22;2951;47.712;9.400;2023-07-31T12:57:50;23.70;99.90
5850;DHT22;2951;47.712;9.400;2023-07-31T13:00:17;23.60;99.90
5850;DHT22;2951;47.712;9.400;2023-07-31T13:02:44;23.40;99.90
5850;DHT22;2951;47.712;9.400;2023-07-31T13:05:10;23.30;99.90
5850;DHT22;2951;47.712;9.400;2023-07-31T13:07:37;23.70;99.90
5850;DHT22;2951;47.712;9.400;2023-07-31T13:10:05;23.90;99.90
5850;DHT22;2951;47.712;9.400;2023-07-31T13:12:32;24.20;99.90
5850;DHT22;2951;47.712;9.400;2023-07-31T13:14:59;24.20;99.90
5850;DHT22;2951;47.712;9.400;2023-07-31T13:17:26;24.50;99.90
5850;DHT22;2951;47.712;9.400;2023-07-31T13:19:53;24.30;99.90
5850;DHT22;2951;47.712;9.400;2023-07-31T13:22:20;23.80;99.90
5850;DHT22;2951;47.712;9.400;2023-07-31T13:24:46;23.90;99.90
5850;DHT22;2951;47.712;9.400;2023-07-31T13:27:14;24.00;99.90
5850;DHT22;2951;47.712;9.400;2023-07-31T13:29:45;24.20;99.90
5850;DHT22;2951;47.712;9.400;2023-07-31T13:32:12;24.20;99.90
5850;DHT22;2951;47.712;9.400;2023-07-31T13:34:38;24.40;99.90
5850;DHT22;2951;47.712;9.400;2023-07-31T13:37:05;24.40;99.90
5850;DHT22;2951;47.712;9.400;2023-07-31T13:39:35;24.10;99.90
5850;DHT22;2951;47.712;9.400;2023-07-31T13:42:05;24.10;99.90
5850;DHT22;2951;47.712;9.400;2023-07-31T13:44:34;23.90;99.90
5850;DHT22;2951;47.712;9.400;2023-07-31T13:47:01;24.10;99.90
5850;DHT22;2951;47.712;9.400;2023-07-31T13:49:29;24.40;99.90
5850;DHT22;2951;47.712;9.400;2023-07-31T13:51:56;24.90;99.90
5850;DHT22;2951;47.712;9.400;2023-07-31T13:54:23;25.10;99.90
5850;DHT22;2951;47.712;9.400;2023-07-31T13:56:50;25.50;99.90
5850;DHT22;2951;47.712;9.400;2023-07-31T13:59:17;25.50;99.90
5850;DHT22;2951;47.712;9.400;2023-07-31T14:01:44;25.90;99.90
5850;DHT22;2951;47.712;9.400;2023-07-31T14:04:11;25.70;99.90
5850;DHT22;2951;47.712;9.400;2023-07-31T14:06:38;25.60;99.90
5850;DHT22;2951;47.712;9.400;2023-07-31T14:09:05;25.70;99.90
5850;DHT22;2951;47.712;9.400;2023-07-31T14:11:32;25.50;99.90
5850;DHT22;2951;47.712;9.400;2023-07-31T14:13:59;25.70;99.90
5850;DHT22;2951;47.712;9.400;2023-07-31T14:16:27;26.50;99.90
5850;DHT22;2951;47.712;9.400;2023-07-31T14:18:54;26.50;99.90
5850;DHT22;2951;47.712;9.400;2023-07-31T14:21:22;26.80;99.90
5850;DHT22;2951;47.712;9.400;2023-07-31T14:23:48;27.30;99.90
5850;DHT22;2951;47.712;9.400;2023-07-31T14:26:15;27.00;99.90
5850;DHT22;2951;47.712;9.400;2023-07-31T14:28:43;26.40;99.90
5850;DHT22;2951;47.712;9.400;2023-07-31T14:31:09;25.90;99.90
5850;DHT22;2951;47.712;9.400;2023-07-31T14:33:36;26.50;99.90
5850;DHT22;2951;47.712;9.400;2023-07-31T14:36:03;27.00;99.90
5850;DHT22;2951;47.712;9.400;2023-07-31T14:38:30;27.30;99.90
5850;DHT22;2951;47.712;9.400;2023-07-31T14:40:56;27.60;99.90
5850;DHT22;2951;47.712;9.400;2023-07-31T14:43:23;27.40;99.90
5850;DHT22;2951;47.712;9.400;2023-07-31T14:45:50;27.50;99.90
5850;DHT22;2951;47.712;9.400;2023-07-31T14:48:16;28.00;99.90
5850;DHT22;2951;47.712;9.400;2023-07-31T14:50:43;28.00;99.90
5850;DHT22;2951;47.712;9.400;2023-07-31T14:53:10;27.50;99.90
5850;DHT22;2951;47.712;9.400;2023-07-31T14:55:36;27.00;99.90
5850;DHT22;2951;47.712;9.400;2023-07-31T14:58:06;27.20;99.90
5850;DHT22;2951;47.712;9.400;2023-07-31T15:00:32;27.60;99.90
5850;DHT22;2951;47.712;9.400;2023-07-31T15:02:59;27.90;99.90
5850;DHT22;2951;47.712;9.400;2023-07-31T15:05:26;27.80;99.90
5850;DHT22;2951;47.712;9.400;2023-07-31T15:07:53;27.40;99.90
5850;DHT22;2951;47.712;9.400;2023-07-31T15:10:19;26.70;99.90
5850;DHT22;2951;47.712;9.400;2023-07-31T15:12:46;26.40;99.90
5850;DHT22;2951;47.712;9.400;2023-07-31T15:15:14;26.00;99.90
5850;DHT22;2951;47.712;9.400;2023-07-31T15:17:41;25.90;99.90
5850;DHT22;2951;47.712;9.400;2023-07-31T15:20:09;26.10;99.90
5850;DHT22;2951;47.712;9.400;2023-07-31T15:22:35;26.00;99.90
5850;DHT22;2951;47.712;9.400;2023-07-31T15:25:02;26.40;99.90
5850;DHT22;2951;47.712;9.400;2023-07-31T15:27:29;26.60;99.90
5850;DHT22;2951;47.712;9.400;2023-07-31T15:29:56;26.40;99.90
5850;DHT22;2951;47.712;9.400;2023-07-31T15:32:22;26.20;99.90
5850;DHT22;2951;47.712;9.400;2023-07-31T15:34:50;26.30;99.90
5850;DHT22;2951;47.712;9.400;2023-07-31T15:37:17;26.30;99.90
5850;DHT22;2951;47.712;9.400;2023-07-31T15:39:44;26.10;99.90
5850;DHT22;2951;47.712;9.400;2023-07-31T15:42:10;26.10;99.90
5850;DHT22;2951;47.712;9.400;2023-07-31T15:44:37;26.00;99.90
5850;DHT22;2951;47.712;9.400;2023-07-31T15:47:05;26.00;99.90
5850;DHT22;2951;47.712;9.400;2023-07-31T15:49:32;25.80;99.90
5850;DHT22;2951;47.712;9.400;2023-07-31T15:51:59;25.50;99.90
5850;DHT22;2951;47.712;9.400;2023-07-31T15:54:25;25.40;99.90
5850;DHT22;2951;47.712;9.400;2023-07-31T15:56:52;25.20;99.90
5850;DHT22;2951;47.712;9.400;2023-07-31T15:59:19;25.30;99.90
5850;DHT22;2951;47.712;9.400;2023-07-31T16:01:45;25.40;99.90
5850;DHT22;2951;47.712;9.400;2023-07-31T16:04:12;25.70;99.90
5850;DHT22;2951;47.712;9.400;2023-07-31T16:06:39;26.00;99.90
5850;DHT22;2951;47.712;9.400;2023-07-31T16:09:05;26.30;99.90
5850;DHT22;2951;47.712;9.400;2023-07-31T16:11:32;26.20;99.90
5850;DHT22;2951;47.712;9.400;2023-07-31T16:13:59;26.30;99.90
5850;DHT22;2951;47.712;9.400;2023-07-31T16:16:28;25.90;99.90
5850;DHT22;2951;47.712;9.400;2023-07-31T16:18:55;26.00;99.90
5850;DHT22;2951;47.712;9.400;2023-07-31T16:21:22;26.10;99.90
5850;DHT22;2951;47.712;9.400;2023-07-31T16:23:48;26.10;99.90
5850;DHT22;2951;47.712;9.400;2023-07-31T16:26:15;26.10;99.90
5850;DHT22;2951;47.712;9.400;2023-07-31T16:28:44;26.00;99.90